Time;durP1;ratioP1;P1;durP2;ratioP2;P2;SDS_P1;SDS_P2;PMS_P1;PMS_P2;Temp;Humidity;BMP_temperature;BMP_pressure;BME280_temperature;BME280_humidity;BME280_pressure;Samples;Min_cycle;Max_cycle;Signal;HPM_P1;HPM_P2
2023/10/06 00:00:50;;;;;;;10.73;8.40;;;;;;;;;;9941196;28;21692;-77
2023/10/06 00:05:53;;;;;;;12.52;9.70;;;;;;;;;;9727643;28;22335;-75
2023/10/06 00:10:55;;;;;;;21.42;11.48;;;;;;;;;;9735216;28;22352;-76
2023/10/06 00:15:56;;;;;;;16.98;11.35;;;;;;;;;;9707900;28;22333;-77
2023/10/06 00:21:04;;;;;;;16.13;9.68;;;;;;;;;;9707683;28;21155;-76
2023/10/06 00:26:08;;;;;;;17.08;10.45;;;;;;;;;;9694711;28;20243;-75
2023/10/06 00:31:10;;;;;;;13.05;9.80;;;;;;;;;;9693046;28;20914;-75
2023/10/06 00:36:19;;;;;;;12.82;8.52;;;;;;;;;;9702908;28;22291;-75
2023/10/06 00:41:21;;;;;;;17.67;10.18;;;;;;;;;;9673469;28;21820;-76
2023/10/06 00:46:22;;;;;;;13.38;9.43;;;;;;;;;;9705686;28;20223;-75
2023/10/06 00:51:26;;;;;;;13.30;8.57;;;;;;;;;;9701100;28;20211;-74
2023/10/06 00:56:30;;;;;;;10.68;8.38;;;;;;;;;;9690022;28;21926;-75
2023/10/06 01:01:34;;;;;;;16.67;9.52;;;;;;;;;;9684254;28;21042;-77
2023/10/06 01:06:36;;;;;;;16.52;9.55;;;;;;;;;;9734904;28;21815;-76
2023/10/06 01:11:44;;;;;;;13.82;9.77;;;;;;;;;;9716679;28;21337;-75
2023/10/06 01:16:49;;;;;;;20.58;10.40;;;;;;;;;;9734391;28;22610;-75
2023/10/06 01:21:53;;;;;;;16.30;10.38;;;;;;;;;;9708150;28;22177;-76
2023/10/06 01:26:59;;;;;;;20.98;11.70;;;;;;;;;;9712180;28;21405;-76
2023/10/06 01:32:05;;;;;;;16.88;10.05;;;;;;;;;;9665925;28;22397;-75
2023/10/06 01:37:07;;;;;;;16.25;11.05;;;;;;;;;;9672007;28;20281;-75
2023/10/06 01:42:11;;;;;;;15.82;10.25;;;;;;;;;;9663387;28;20211;-76
2023/10/06 01:47:12;;;;;;;21.60;11.27;;;;;;;;;;9679002;28;21203;-76
2023/10/06 01:52:19;;;;;;;19.52;11.45;;;;;;;;;;9673342;28;21940;-76
2023/10/06 01:57:20;;;;;;;17.73;11.45;;;;;;;;;;10035989;28;20223;-78
2023/10/06 02:02:24;;;;;;;13.40;10.05;;;;;;;;;;10387679;28;20291;-77
2023/10/06 02:07:25;;;;;;;16.25;10.68;;;;;;;;;;10371487;28;20231;-78
2023/10/06 02:12:26;;;;;;;15.50;9.70;;;;;;;;;;10368841;28;20208;-77
2023/10/06 02:17:30;;;;;;;15.27;9.68;;;;;;;;;;10365216;28;20291;-77
2023/10/06 02:22:31;;;;;;;13.20;9.45;;;;;;;;;;10365072;28;20208;-77
2023/10/06 02:27:43;;;;;;;15.73;10.73;;;;;;;;;;10385278;28;20219;-76
2023/10/06 02:32:45;;;;;;;16.50;10.32;;;;;;;;;;10392726;28;20206;-77
2023/10/06 02:37:46;;;;;;;19.67;10.13;;;;;;;;;;10381251;28;20250;-79
2023/10/06 02:42:56;;;;;;;15.07;8.43;;;;;;;;;;10387823;28;20362;-77
2023/10/06 02:47:58;;;;;;;16.33;9.35;;;;;;;;;;10363175;28;20214;-78
2023/10/06 02:52:59;;;;;;;12.80;9.00;;;;;;;;;;10412567;28;20215;-79
2023/10/06 02:58:00;;;;;;;14.27;8.88;;;;;;;;;;10407670;28;20799;-79
2023/10/06 03:03:03;;;;;;;13.88;10.02;;;;;;;;;;10375925;28;20208;-79
2023/10/06 03:08:11;;;;;;;10.15;8.45;;;;;;;;;;10373985;28;20233;-78
2023/10/06 03:13:16;;;;;;;11.13;8.45;;;;;;;;;;10386627;28;20448;-79
2023/10/06 03:18:18;;;;;;;10.90;7.75;;;;;;;;;;10392693;28;20215;-79
2023/10/06 03:23:36;;;;;;;14.70;9.15;;;;;;;;;;10388283;28;20735;-78
2023/10/06 03:28:37;;;;;;;10.45;8.30;;;;;;;;;;10390066;28;20227;-79
2023/10/06 03:33:39;;;;;;;14.45;9.18;;;;;;;;;;10393406;28;20243;-78
2023/10/06 03:38:44;;;;;;;14.80;9.32;;;;;;;;;;10388351;28;20262;-79
2023/10/06 03:43:51;;;;;;;16.13;9.73;;;;;;;;;;10379781;28;20215;-77
2023/10/06 03:48:53;;;;;;;15.77;9.55;;;;;;;;;;10397202;28;20218;-80
2023/10/06 03:53:56;;;;;;;13.00;8.45;;;;;;;;;;10396356;28;21173;-78
2023/10/06 03:58:59;;;;;;;18.05;8.80;;;;;;;;;;9940506;28;20361;-76
2023/10/06 04:04:01;;;;;;;15.75;8.68;;;;;;;;;;9739774;28;20350;-76
2023/10/06 04:09:02;;;;;;;13.05;9.52;;;;;;;;;;9711647;28;20313;-75
2023/10/06 04:14:05;;;;;;;12.82;9.05;;;;;;;;;;9711123;28;22208;-76
2023/10/06 04:19:06;;;;;;;10.65;8.57;;;;;;;;;;9723985;28;21514;-75
2023/10/06 04:24:08;;;;;;;13.50;8.68;;;;;;;;;;9695466;28;20252;-77
2023/10/06 04:29:09;;;;;;;12.27;8.15;;;;;;;;;;9720978;28;20224;-75
2023/10/06 04:34:10;;;;;;;8.55;7.20;;;;;;;;;;9702802;28;20227;-76
2023/10/06 04:39:16;;;;;;;10.73;8.32;;;;;;;;;;9721874;28;20826;-76
2023/10/06 04:44:17;;;;;;;8.27;7.13;;;;;;;;;;9717411;28;21730;-75
2023/10/06 04:49:18;;;;;;;8.73;7.60;;;;;;;;;;9709610;28;21623;-75
2023/10/06 04:54:20;;;;;;;8.93;7.82;;;;;;;;;;9699244;28;22396;-75
2023/10/06 04:59:22;;;;;;;9.25;7.60;;;;;;;;;;9720880;28;21132;-76
2023/10/06 05:04:23;;;;;;;8.80;6.93;;;;;;;;;;9692826;28;21941;-74
2023/10/06 05:09:25;;;;;;;12.77;7.65;;;;;;;;;;9704337;28;20269;-75
2023/10/06 05:14:27;;;;;;;11.30;7.35;;;;;;;;;;9687210;28;21388;-75
2023/10/06 05:19:28;;;;;;;8.27;7.45;;;;;;;;;;9689324;28;21638;-75
2023/10/06 05:24:29;;;;;;;8.00;7.20;;;;;;;;;;9688866;28;21286;-75
2023/10/06 05:29:31;;;;;;;7.18;6.32;;;;;;;;;;9685175;28;21661;-77
2023/10/06 05:34:32;;;;;;;9.00;6.65;;;;;;;;;;9711348;28;20804;-75
2023/10/06 05:39:33;;;;;;;10.07;6.30;;;;;;;;;;9659079;28;21612;-75
2023/10/06 05:44:36;;;;;;;13.13;7.40;;;;;;;;;;9696760;28;20330;-75
2023/10/06 05:49:38;;;;;;;15.60;7.72;;;;;;;;;;9666671;28;20346;-75
2023/10/06 05:54:39;;;;;;;10.00;7.70;;;;;;;;;;10228446;28;20301;-76
2023/10/06 05:59:42;;;;;;;10.23;6.65;;;;;;;;;;10376145;28;20219;-76
2023/10/06 06:04:43;;;;;;;8.80;7.93;;;;;;;;;;10358911;28;20227;-76
2023/10/06 06:09:44;;;;;;;11.18;7.15;;;;;;;;;;10394383;28;20215;-77
2023/10/06 06:14:45;;;;;;;8.43;7.53;;;;;;;;;;10402075;28;20215;-75
2023/10/06 06:19:47;;;;;;;12.27;6.90;;;;;;;;;;10409452;28;20812;-76
2023/10/06 06:24:49;;;;;;;10.65;7.05;;;;;;;;;;10363654;28;20317;-75
2023/10/06 06:29:50;;;;;;;13.43;7.28;;;;;;;;;;10359773;28;20225;-76
2023/10/06 06:34:53;;;;;;;11.65;6.57;;;;;;;;;;10378334;28;20214;-76
2023/10/06 06:39:55;;;;;;;11.43;7.03;;;;;;;;;;10359286;28;20255;-75
2023/10/06 06:45:00;;;;;;;8.55;6.47;;;;;;;;;;10389348;28;20265;-75
2023/10/06 06:50:02;;;;;;;6.75;5.82;;;;;;;;;;10378607;28;20211;-78
2023/10/06 06:55:05;;;;;;;6.07;5.45;;;;;;;;;;10335651;28;20195;-77
2023/10/06 07:00:09;;;;;;;5.50;5.00;;;;;;;;;;10363913;28;20226;-76
2023/10/06 07:05:11;;;;;;;5.85;4.72;;;;;;;;;;10391464;28;20183;-76
2023/10/06 07:10:19;;;;;;;6.63;4.13;;;;;;;;;;10372669;28;20210;-76
2023/10/06 07:15:24;;;;;;;5.10;4.15;;;;;;;;;;10379316;28;20189;-75
2023/10/06 07:20:29;;;;;;;4.90;4.07;;;;;;;;;;10371427;28;20219;-77
2023/10/06 07:25:31;;;;;;;4.55;4.05;;;;;;;;;;10394773;28;20235;-76
2023/10/06 07:30:35;;;;;;;5.10;3.08;;;;;;;;;;10381203;28;20672;-75
2023/10/06 07:35:51;;;;;;;5.82;3.33;;;;;;;;;;10404905;28;20228;-76
2023/10/06 07:40:52;;;;;;;5.68;3.40;;;;;;;;;;10379916;28;20655;-75
2023/10/06 07:45:53;;;;;;;3.33;2.78;;;;;;;;;;10359383;28;20210;-75
2023/10/06 07:51:02;;;;;;;2.88;2.67;;;;;;;;;;10376934;28;20226;-76
2023/10/06 07:56:06;;;;;;;2.72;2.53;;;;;;;;;;10007612;28;20293;-75
2023/10/06 08:01:08;;;;;;;5.05;2.28;;;;;;;;;;9708108;28;21284;-76
2023/10/06 08:06:10;;;;;;;1.98;1.88;;;;;;;;;;9687027;28;20332;-75
2023/10/06 08:11:13;;;;;;;2.13;1.60;;;;;;;;;;9682983;28;20341;-76
2023/10/06 08:16:14;;;;;;;4.18;1.50;;;;;;;;;;9683617;28;21639;-77
2023/10/06 08:21:15;;;;;;;3.00;1.63;;;;;;;;;;9680584;28;21378;-75
2023/10/06 08:26:16;;;;;;;6.68;1.60;;;;;;;;;;9718516;28;21460;-75
2023/10/06 08:31:17;;;;;;;2.95;1.30;;;;;;;;;;9786847;28;20299;-75
2023/10/06 08:36:18;;;;;;;4.15;1.30;;;;;;;;;;9785638;28;21982;-74
2023/10/06 08:41:26;;;;;;;3.55;1.38;;;;;;;;;;9764164;28;21158;-74
2023/10/06 08:46:27;;;;;;;1.25;1.15;;;;;;;;;;9740515;28;20218;-75
2023/10/06 08:51:32;;;;;;;2.30;1.10;;;;;;;;;;9787856;28;21230;-76
2023/10/06 08:56:34;;;;;;;1.95;0.90;;;;;;;;;;9817189;28;22193;-74
2023/10/06 09:01:36;;;;;;;2.05;1.00;;;;;;;;;;9824704;28;20208;-75
2023/10/06 09:06:38;;;;;;;0.75;0.75;;;;;;;;;;9813195;28;20220;-74
2023/10/06 09:11:40;;;;;;;1.13;1.02;;;;;;;;;;9790952;28;21433;-73
2023/10/06 09:16:48;;;;;;;4.15;1.35;;;;;;;;;;9751004;28;20215;-73
2023/10/06 09:22:00;;;;;;;1.58;0.77;;;;;;;;;;9793283;28;22074;-73
2023/10/06 09:27:19;;;;;;;0.95;0.95;;;;;;;;;;9796824;28;21524;-74
2023/10/06 09:32:21;;;;;;;1.42;1.33;;;;;;;;;;9801636;28;20219;-74
2023/10/06 09:37:22;;;;;;;3.05;1.00;;;;;;;;;;9812647;28;20223;-74
2023/10/06 09:42:27;;;;;;;1.75;0.90;;;;;;;;;;9804944;28;20219;-74
2023/10/06 09:47:28;;;;;;;0.90;0.90;;;;;;;;;;9886638;28;20222;-75
2023/10/06 09:52:30;;;;;;;1.88;0.80;;;;;;;;;;10380434;28;20795;-77
2023/10/06 09:57:33;;;;;;;2.15;0.80;;;;;;;;;;10391669;28;20654;-75
2023/10/06 10:02:34;;;;;;;2.67;0.68;;;;;;;;;;10389196;28;20214;-77
2023/10/06 10:07:36;;;;;;;0.80;0.73;;;;;;;;;;10387987;28;20212;-77
2023/10/06 10:12:43;;;;;;;2.97;0.90;;;;;;;;;;10363084;28;20238;-74
2023/10/06 10:17:58;;;;;;;3.90;1.00;;;;;;;;;;10379109;28;20223;-74
2023/10/06 10:23:01;;;;;;;2.83;0.85;;;;;;;;;;10398899;28;20673;-75
2023/10/06 10:28:11;;;;;;;1.65;0.60;;;;;;;;;;10396976;28;20232;-75
2023/10/06 10:33:19;;;;;;;1.63;0.70;;;;;;;;;;10383625;28;20222;-75
2023/10/06 10:38:20;;;;;;;3.83;0.88;;;;;;;;;;10375461;28;20223;-75
2023/10/06 10:43:22;;;;;;;0.90;0.90;;;;;;;;;;10381964;28;20210;-75
2023/10/06 10:48:32;;;;;;;2.85;1.08;;;;;;;;;;10386251;28;20939;-77
2023/10/06 10:53:38;;;;;;;1.30;1.08;;;;;;;;;;10366499;28;20245;-76
2023/10/06 10:58:45;;;;;;;1.23;1.13;;;;;;;;;;10380475;28;20230;-78
2023/10/06 11:04:06;;;;;;;1.52;1.30;;;;;;;;;;10401816;28;20281;-77
2023/10/06 11:09:25;;;;;;;3.13;1.00;;;;;;;;;;10382175;28;20226;-76
2023/10/06 11:14:27;;;;;;;2.50;0.98;;;;;;;;;;10373743;28;20985;-77
2023/10/06 11:19:32;;;;;;;2.25;1.40;;;;;;;;;;10382836;28;20277;-77
2023/10/06 11:24:34;;;;;;;0.90;0.90;;;;;;;;;;10391197;28;20835;-78
2023/10/06 11:29:35;;;;;;;3.08;0.95;;;;;;;;;;10372134;28;20313;-78
2023/10/06 11:34:36;;;;;;;0.85;0.85;;;;;;;;;;10364846;28;20260;-78
2023/10/06 11:39:37;;;;;;;1.40;1.30;;;;;;;;;;10382934;28;20223;-79
2023/10/06 11:44:38;;;;;;;1.10;1.10;;;;;;;;;;10397179;28;20906;-76
2023/10/06 11:49:54;;;;;;;1.92;1.05;;;;;;;;;;10373870;28;20226;-75
2023/10/06 11:54:58;;;;;;;2.28;0.80;;;;;;;;;;10386817;28;20250;-76
2023/10/06 11:59:59;;;;;;;0.85;0.70;;;;;;;;;;9924400;28;21012;-76
2023/10/06 12:05:10;;;;;;;1.55;0.93;;;;;;;;;;9673790;28;21115;-75
2023/10/06 12:10:11;;;;;;;1.40;1.13;;;;;;;;;;9696898;28;22080;-77
2023/10/06 12:15:14;;;;;;;2.72;0.82;;;;;;;;;;9714122;28;21334;-78
2023/10/06 12:20:16;;;;;;;1.85;0.60;;;;;;;;;;9677842;28;20861;-76
2023/10/06 12:25:20;;;;;;;2.65;0.55;;;;;;;;;;9722060;28;20762;-75
2023/10/06 12:30:22;;;;;;;4.32;0.60;;;;;;;;;;9674626;28;20866;-76
2023/10/06 12:35:28;;;;;;;1.38;0.60;;;;;;;;;;9654758;28;20646;-76
2023/10/06 12:40:29;;;;;;;0.50;0.50;;;;;;;;;;9634857;28;22278;-75
2023/10/06 12:45:30;;;;;;;0.63;0.63;;;;;;;;;;9665959;28;21568;-75
2023/10/06 12:50:33;;;;;;;3.28;0.57;;;;;;;;;;9639484;28;21620;-76
2023/10/06 12:55:35;;;;;;;1.45;0.60;;;;;;;;;;9639338;28;21338;-74
2023/10/06 13:00:36;;;;;;;1.05;0.52;;;;;;;;;;9640367;28;20886;-75
2023/10/06 13:05:37;;;;;;;1.80;0.43;;;;;;;;;;9647802;28;20939;-75
2023/10/06 13:10:38;;;;;;;3.78;0.73;;;;;;;;;;9639710;28;21310;-75
2023/10/06 13:15:42;;;;;;;1.02;0.80;;;;;;;;;;9634061;28;21218;-75
2023/10/06 13:20:44;;;;;;;3.22;0.77;;;;;;;;;;9643202;28;21098;-75
2023/10/06 13:25:46;;;;;;;1.60;0.50;;;;;;;;;;9639334;28;20227;-75
2023/10/06 13:30:47;;;;;;;0.90;0.65;;;;;;;;;;9681185;28;21091;-75
2023/10/06 13:35:50;;;;;;;0.50;0.50;;;;;;;;;;9667616;28;21255;-78
2023/10/06 13:40:52;;;;;;;0.80;0.70;;;;;;;;;;9684316;28;23589;-75
2023/10/06 13:45:57;;;;;;;2.08;0.63;;;;;;;;;;10129227;28;20222;-77
2023/10/06 13:50:59;;;;;;;0.50;0.50;;;;;;;;;;10393162;28;20219;-79
2023/10/06 13:56:00;;;;;;;1.77;0.90;;;;;;;;;;10396100;28;20223;-77
2023/10/06 14:01:01;;;;;;;0.60;0.60;;;;;;;;;;10363612;28;20214;-76
2023/10/06 14:06:02;;;;;;;1.02;0.50;;;;;;;;;;10367673;28;20827;-77
2023/10/06 14:11:03;;;;;;;2.10;0.80;;;;;;;;;;10367617;28;20322;-76
2023/10/06 14:16:11;;;;;;;2.17;0.60;;;;;;;;;;10369109;28;20224;-75
2023/10/06 14:21:13;;;;;;;0.80;0.80;;;;;;;;;;10362506;28;20658;-77
2023/10/06 14:26:14;;;;;;;0.80;0.80;;;;;;;;;;10354949;28;20973;-77
2023/10/06 14:31:30;;;;;;;0.90;0.55;;;;;;;;;;10375879;28;20206;-77
2023/10/06 14:36:32;;;;;;;0.60;0.50;;;;;;;;;;10380421;28;20238;-77
2023/10/06 14:46:53;;;;;;;0.50;0.50;;;;;;;;;;10357574;28;20400;-80
2023/10/06 14:51:58;;;;;;;1.73;0.60;;;;;;;;;;10374181;28;20242;-79
2023/10/06 14:56:59;;;;;;;2.25;0.50;;;;;;;;;;10383118;28;20747;-74
2023/10/06 15:02:06;;;;;;;0.77;0.50;;;;;;;;;;10361943;28;20286;-74
2023/10/06 15:07:10;;;;;;;3.22;0.60;;;;;;;;;;10345847;28;20298;-74
2023/10/06 15:12:14;;;;;;;0.60;0.60;;;;;;;;;;10387450;28;20317;-76
2023/10/06 15:17:16;;;;;;;0.88;0.70;;;;;;;;;;10379349;28;20228;-75
2023/10/06 15:22:17;;;;;;;0.52;0.52;;;;;;;;;;10390681;28;20216;-76
2023/10/06 15:27:18;;;;;;;0.60;0.60;;;;;;;;;;10381472;28;20341;-75
2023/10/06 15:32:19;;;;;;;5.32;0.50;;;;;;;;;;10393218;28;20212;-76
2023/10/06 15:37:21;;;;;;;1.85;0.50;;;;;;;;;;10371907;28;20743;-76
2023/10/06 15:42:22;;;;;;;0.65;0.65;;;;;;;;;;10374359;28;20711;-76
2023/10/06 15:47:23;;;;;;;0.40;0.40;;;;;;;;;;10394234;28;20770;-76
2023/10/06 15:52:26;;;;;;;0.63;0.40;;;;;;;;;;10355619;28;20207;-75
2023/10/06 15:57:28;;;;;;;0.80;0.63;;;;;;;;;;10367125;28;20705;-75
2023/10/06 16:02:29;;;;;;;1.48;0.95;;;;;;;;;;9970994;28;21194;-75
2023/10/06 16:07:32;;;;;;;0.77;0.77;;;;;;;;;;9679049;28;20881;-75
2023/10/06 16:12:33;;;;;;;2.00;0.68;;;;;;;;;;9632207;28;20896;-77
2023/10/06 16:17:34;;;;;;;0.70;0.70;;;;;;;;;;9670076;28;20265;-75
2023/10/06 16:22:36;;;;;;;1.77;0.80;;;;;;;;;;9663724;28;21202;-76
2023/10/06 16:27:37;;;;;;;1.85;0.60;;;;;;;;;;9656660;28;20852;-78
2023/10/06 16:32:38;;;;;;;0.93;0.65;;;;;;;;;;9651680;28;20864;-74
2023/10/06 16:37:39;;;;;;;1.58;0.70;;;;;;;;;;9609770;28;20664;-75
2023/10/06 16:42:44;;;;;;;1.75;0.80;;;;;;;;;;9620074;28;20348;-76
2023/10/06 16:47:45;;;;;;;2.83;0.55;;;;;;;;;;9663620;28;21964;-75
2023/10/06 16:52:46;;;;;;;1.65;0.70;;;;;;;;;;9699145;28;21407;-77
2023/10/06 16:57:47;;;;;;;1.38;1.00;;;;;;;;;;9654892;28;21462;-76
2023/10/06 17:02:49;;;;;;;0.60;0.60;;;;;;;;;;9696920;28;20973;-76
2023/10/06 17:07:51;;;;;;;1.83;0.75;;;;;;;;;;9716367;28;20249;-76
2023/10/06 17:12:52;;;;;;;3.63;2.28;;;;;;;;;;9703959;28;20973;-79
2023/10/06 17:17:53;;;;;;;1.92;0.90;;;;;;;;;;9724686;28;21324;-78
2023/10/06 17:22:54;;;;;;;1.40;0.80;;;;;;;;;;9701270;28;21104;-77
2023/10/06 17:27:55;;;;;;;0.80;0.80;;;;;;;;;;9724432;28;20231;-75
2023/10/06 17:32:56;;;;;;;0.70;0.70;;;;;;;;;;9698005;28;20767;-78
2023/10/06 17:37:57;;;;;;;1.00;0.57;;;;;;;;;;9718824;28;21323;-77
2023/10/06 17:43:00;;;;;;;0.60;0.60;;;;;;;;;;10309708;28;20223;-77
2023/10/06 17:48:01;;;;;;;2.70;0.80;;;;;;;;;;10386455;28;20207;-78
2023/10/06 17:53:02;;;;;;;3.20;0.90;;;;;;;;;;10370315;28;20219;-77
2023/10/06 17:58:03;;;;;;;0.68;0.65;;;;;;;;;;10359099;28;20273;-78
2023/10/06 18:03:04;;;;;;;0.60;0.60;;;;;;;;;;10405493;28;20234;-77
2023/10/06 18:08:07;;;;;;;0.93;0.70;;;;;;;;;;10388671;28;20358;-77
2023/10/06 18:13:08;;;;;;;0.70;0.70;;;;;;;;;;10374559;28;20219;-78
2023/10/06 18:18:10;;;;;;;0.80;0.80;;;;;;;;;;10389097;28;20215;-78
2023/10/06 18:23:11;;;;;;;0.80;0.80;;;;;;;;;;10401623;28;20210;-79
2023/10/06 18:28:12;;;;;;;0.70;0.70;;;;;;;;;;10370746;28;20235;-78
2023/10/06 18:33:13;;;;;;;0.60;0.60;;;;;;;;;;10372565;28;20223;-77
2023/10/06 18:38:15;;;;;;;2.13;0.80;;;;;;;;;;10362703;28;21140;-78
2023/10/06 18:43:16;;;;;;;1.63;0.57;;;;;;;;;;10367916;28;20253;-77
2023/10/06 18:48:17;;;;;;;0.80;0.80;;;;;;;;;;10374059;28;20331;-78
2023/10/06 18:53:18;;;;;;;0.90;0.90;;;;;;;;;;10388286;28;20213;-80
2023/10/06 18:58:19;;;;;;;2.72;0.60;;;;;;;;;;10378202;28;20226;-79
2023/10/06 19:03:23;;;;;;;1.17;0.75;;;;;;;;;;10388065;28;20213;-78
2023/10/06 19:08:27;;;;;;;2.63;0.73;;;;;;;;;;10358608;28;20219;-78
2023/10/06 19:13:29;;;;;;;1.35;0.63;;;;;;;;;;10391566;28;20219;-79
2023/10/06 19:18:30;;;;;;;0.73;0.70;;;;;;;;;;10413718;28;20406;-77
2023/10/06 19:23:34;;;;;;;0.60;0.60;;;;;;;;;;10375079;28;20203;-78
2023/10/06 19:28:36;;;;;;;0.65;0.65;;;;;;;;;;10379665;28;20226;-77
2023/10/06 19:33:47;;;;;;;0.80;0.70;;;;;;;;;;10368631;28;20702;-77
2023/10/06 19:38:50;;;;;;;0.70;0.70;;;;;;;;;;10394483;28;20227;-79
2023/10/06 19:43:51;;;;;;;2.08;0.88;;;;;;;;;;10379474;28;20257;-79
2023/10/06 19:48:55;;;;;;;0.88;0.80;;;;;;;;;;10396535;28;20302;-77
2023/10/06 19:53:56;;;;;;;0.82;0.75;;;;;;;;;;10373650;28;20698;-78
2023/10/06 19:58:57;;;;;;;1.50;0.68;;;;;;;;;;10358493;28;20255;-78
2023/10/06 20:03:58;;;;;;;2.25;0.60;;;;;;;;;;10400306;28;20212;-78
2023/10/06 20:08:59;;;;;;;0.70;0.63;;;;;;;;;;10069259;28;20997;-77
2023/10/06 20:14:00;;;;;;;0.70;0.70;;;;;;;;;;9679810;28;21588;-76
2023/10/06 20:19:02;;;;;;;2.15;0.60;;;;;;;;;;9654921;28;20882;-77
2023/10/06 20:24:03;;;;;;;1.17;0.60;;;;;;;;;;9674855;28;21580;-76
2023/10/06 20:29:09;;;;;;;1.40;0.70;;;;;;;;;;9679118;28;21170;-80
2023/10/06 20:34:10;;;;;;;1.85;0.75;;;;;;;;;;9708938;28;21212;-79
2023/10/06 20:39:11;;;;;;;0.77;0.73;;;;;;;;;;9701811;28;20769;-77
2023/10/06 20:44:12;;;;;;;4.00;0.65;;;;;;;;;;9667557;28;21022;-77
2023/10/06 20:49:14;;;;;;;0.95;0.90;;;;;;;;;;9749426;28;20685;-79
2023/10/06 20:54:16;;;;;;;1.00;0.90;;;;;;;;;;9768484;28;21026;-78
2023/10/06 20:59:17;;;;;;;0.75;0.60;;;;;;;;;;9778963;28;20223;-78
2023/10/06 21:04:19;;;;;;;0.90;0.80;;;;;;;;;;9882096;28;20212;-77
2023/10/06 21:09:20;;;;;;;0.98;0.63;;;;;;;;;;9897857;28;20329;-77
2023/10/06 21:14:22;;;;;;;0.57;0.57;;;;;;;;;;9874501;28;21220;-78
2023/10/06 21:19:24;;;;;;;0.77;0.57;;;;;;;;;;9851891;28;21675;-75
2023/10/06 21:24:25;;;;;;;1.13;1.00;;;;;;;;;;9830116;28;22093;-76
2023/10/06 21:29:28;;;;;;;0.55;0.55;;;;;;;;;;9840168;28;20224;-76
2023/10/06 21:34:29;;;;;;;0.80;0.80;;;;;;;;;;9842266;28;20347;-76
2023/10/06 21:39:31;;;;;;;0.98;0.77;;;;;;;;;;10377110;28;20225;-79
2023/10/06 21:44:32;;;;;;;1.50;0.65;;;;;;;;;;10406067;28;20738;-77
2023/10/06 21:49:34;;;;;;;1.58;0.98;;;;;;;;;;10371799;28;20226;-78
2023/10/06 21:54:38;;;;;;;1.25;0.90;;;;;;;;;;10388288;28;20562;-77
2023/10/06 21:59:41;;;;;;;0.60;0.60;;;;;;;;;;10405158;28;20222;-77
2023/10/06 22:04:42;;;;;;;0.70;0.70;;;;;;;;;;10408183;28;20759;-78
2023/10/06 22:09:45;;;;;;;0.95;0.90;;;;;;;;;;10392257;28;20746;-78
2023/10/06 22:14:47;;;;;;;0.82;0.82;;;;;;;;;;10390552;28;20238;-78
2023/10/06 22:19:48;;;;;;;4.80;0.63;;;;;;;;;;10396240;28;20833;-76
2023/10/06 22:24:49;;;;;;;0.73;0.60;;;;;;;;;;10373577;28;20704;-77
2023/10/06 22:29:50;;;;;;;1.15;1.00;;;;;;;;;;10401414;28;20216;-78
2023/10/06 22:34:52;;;;;;;1.10;0.60;;;;;;;;;;10390002;28;20238;-78
2023/10/06 22:39:53;;;;;;;2.58;0.80;;;;;;;;;;10392148;28;20218;-78
2023/10/06 22:44:54;;;;;;;1.25;0.80;;;;;;;;;;10385130;28;20211;-77
2023/10/06 22:49:55;;;;;;;1.55;1.20;;;;;;;;;;10370455;28;20215;-78
2023/10/06 22:54:58;;;;;;;1.23;0.73;;;;;;;;;;10381430;28;20207;-78
2023/10/06 22:59:59;;;;;;;1.98;1.05;;;;;;;;;;10399972;28;20227;-78
2023/10/06 23:05:00;;;;;;;2.97;0.90;;;;;;;;;;10390010;28;20208;-78
2023/10/06 23:10:01;;;;;;;0.90;0.90;;;;;;;;;;10379973;28;20302;-79
2023/10/06 23:15:05;;;;;;;1.30;0.95;;;;;;;;;;10385823;28;20306;-79
2023/10/06 23:20:14;;;;;;;1.25;1.00;;;;;;;;;;10379011;28;20302;-78
2023/10/06 23:25:19;;;;;;;1.58;1.20;;;;;;;;;;10391292;28;20230;-78
2023/10/06 23:30:22;;;;;;;1.15;1.05;;;;;;;;;;10377502;28;20218;-78
2023/10/06 23:35:23;;;;;;;1.33;0.88;;;;;;;;;;10366840;28;20334;-77
2023/10/06 23:40:25;;;;;;;2.25;0.95;;;;;;;;;;9915109;28;21577;-77
2023/10/06 23:45:29;;;;;;;0.93;0.80;;;;;;;;;;9916626;28;21220;-76
2023/10/06 23:50:31;;;;;;;2.05;0.95;;;;;;;;;;9929174;28;20230;-76
2023/10/06 23:55:32;;;;;;;2.45;1.20;;;;;;;;;;9909420;28;21793;-76
